sensor_id;sensor_type;location;lat;lon;timestamp;temperature;humidity
26599;DHT22;14240;51.064;16.612;2023-06-22T00:02:13;22.50;99.90
26599;DHT22;14240;51.064;16.612;2023-06-22T00:04:39;22.40;99.90
26599;DHT22;14240;51.064;16.612;2023-06-22T00:07:04;22.40;99.90
26599;DHT22;14240;51.064;16.612;2023-06-22T00:09:31;22.40;99.90
26599;DHT22;14240;51.064;16.612;2023-06-22T00:11:57;22.40;99.90
26599;DHT22;14240;51.064;16.612;2023-06-22T00:14:22;22.40;99.90
26599;DHT22;14240;51.064;16.612;2023-06-22T00:16:48;22.30;99.90
26599;DHT22;14240;51.064;16.612;2023-06-22T00:19:15;22.30;99.90
26599;DHT22;14240;51.064;16.612;2023-06-22T00:21:41;22.30;99.90
26599;DHT22;14240;51.064;16.612;2023-06-22T00:24:08;22.30;99.90
26599;DHT22;14240;51.064;16.612;2023-06-22T00:26:34;22.30;99.90
26599;DHT22;14240;51.064;16.612;2023-06-22T00:28:59;22.30;99.90
26599;DHT22;14240;51.064;16.612;2023-06-22T00:31:25;22.20;99.90
26599;DHT22;14240;51.064;16.612;2023-06-22T00:33:51;22.20;99.90
26599;DHT22;14240;51.064;16.612;2023-06-22T00:36:16;22.20;99.90
26599;DHT22;14240;51.064;16.612;2023-06-22T00:38:44;22.20;99.90
26599;DHT22;14240;51.064;16.612;2023-06-22T00:41:10;22.20;99.90
26599;DHT22;14240;51.064;16.612;2023-06-22T00:43:35;22.20;99.90
26599;DHT22;14240;51.064;16.612;2023-06-22T00:46:01;22.10;99.90
26599;DHT22;14240;51.064;16.612;2023-06-22T00:48:27;22.10;99.90
26599;DHT22;14240;51.064;16.612;2023-06-22T00:50:53;22.10;99.90
26599;DHT22;14240;51.064;16.612;2023-06-22T00:53:21;22.10;99.90
26599;DHT22;14240;51.064;16.612;2023-06-22T00:55:48;22.00;99.90
26599;DHT22;14240;51.064;16.612;2023-06-22T00:58:17;21.90;99.90
26599;DHT22;14240;51.064;16.612;2023-06-22T01:00:47;21.90;99.90
26599;DHT22;14240;51.064;16.612;2023-06-22T01:03:13;21.80;99.90
26599;DHT22;14240;51.064;16.612;2023-06-22T01:05:39;21.80;99.90
26599;DHT22;14240;51.064;16.612;2023-06-22T01:08:31;21.70;99.90
26599;DHT22;14240;51.064;16.612;2023-06-22T01:11:13;21.60;99.90
26599;DHT22;14240;51.064;16.612;2023-06-22T01:16:25;21.50;99.90
26599;DHT22;14240;51.064;16.612;2023-06-22T01:18:55;21.60;99.90
26599;DHT22;14240;51.064;16.612;2023-06-22T01:21:24;21.50;99.90
26599;DHT22;14240;51.064;16.612;2023-06-22T01:24:22;21.50;99.90
26599;DHT22;14240;51.064;16.612;2023-06-22T01:29:34;21.40;99.90
26599;DHT22;14240;51.064;16.612;2023-06-22T01:32:02;21.40;99.90
26599;DHT22;14240;51.064;16.612;2023-06-22T01:34:31;21.40;99.90
26599;DHT22;14240;51.064;16.612;2023-06-22T01:36:58;21.40;99.90
26599;DHT22;14240;51.064;16.612;2023-06-22T01:39:24;21.40;99.90
26599;DHT22;14240;51.064;16.612;2023-06-22T01:41:51;21.30;99.90
26599;DHT22;14240;51.064;16.612;2023-06-22T01:44:17;21.30;99.90
26599;DHT22;14240;51.064;16.612;2023-06-22T01:46:44;21.30;99.90
26599;DHT22;14240;51.064;16.612;2023-06-22T01:49:09;21.30;99.90
26599;DHT22;14240;51.064;16.612;2023-06-22T01:51:35;21.20;99.90
26599;DHT22;14240;51.064;16.612;2023-06-22T01:54:01;21.20;99.90
26599;DHT22;14240;51.064;16.612;2023-06-22T01:56:27;21.20;99.90
26599;DHT22;14240;51.064;16.612;2023-06-22T01:59:07;21.20;99.90
26599;DHT22;14240;51.064;16.612;2023-06-22T02:02:06;21.20;99.90
26599;DHT22;14240;51.064;16.612;2023-06-22T02:04:43;21.20;99.90
26599;DHT22;14240;51.064;16.612;2023-06-22T02:07:13;21.20;99.90
26599;DHT22;14240;51.064;16.612;2023-06-22T02:09:44;21.10;99.90
26599;DHT22;14240;51.064;16.612;2023-06-22T02:12:12;21.10;99.90
26599;DHT22;14240;51.064;16.612;2023-06-22T02:14:38;21.10;99.90
26599;DHT22;14240;51.064;16.612;2023-06-22T02:17:04;21.10;99.90
26599;DHT22;14240;51.064;16.612;2023-06-22T02:19:36;21.10;99.90
26599;DHT22;14240;51.064;16.612;2023-06-22T02:22:03;21.10;99.90
26599;DHT22;14240;51.064;16.612;2023-06-22T02:24:29;21.00;99.90
26599;DHT22;14240;51.064;16.612;2023-06-22T02:26:58;21.00;99.90
26599;DHT22;14240;51.064;16.612;2023-06-22T02:29:24;21.00;99.90
26599;DHT22;14240;51.064;16.612;2023-06-22T02:31:49;20.90;99.90
26599;DHT22;14240;51.064;16.612;2023-06-22T02:34:15;20.90;99.90
26599;DHT22;14240;51.064;16.612;2023-06-22T02:36:48;20.90;99.90
26599;DHT22;14240;51.064;16.612;2023-06-22T02:39:24;20.80;99.90
26599;DHT22;14240;51.064;16.612;2023-06-22T02:41:50;20.80;99.90
26599;DHT22;14240;51.064;16.612;2023-06-22T02:44:16;20.80;99.90
26599;DHT22;14240;51.064;16.612;2023-06-22T02:46:42;20.70;99.90
26599;DHT22;14240;51.064;16.612;2023-06-22T02:49:08;20.70;99.90
26599;DHT22;14240;51.064;16.612;2023-06-22T02:51:34;20.70;99.90
26599;DHT22;14240;51.064;16.612;2023-06-22T02:54:00;20.70;99.90
26599;DHT22;14240;51.064;16.612;2023-06-22T02:56:28;20.70;99.90
26599;DHT22;14240;51.064;16.612;2023-06-22T02:58:53;20.70;99.90
26599;DHT22;14240;51.064;16.612;2023-06-22T03:01:19;20.60;99.90
26599;DHT22;14240;51.064;16.612;2023-06-22T03:03:49;20.70;99.90
26599;DHT22;14240;51.064;16.612;2023-06-22T03:06:15;20.60;99.90
26599;DHT22;14240;51.064;16.612;2023-06-22T03:08:41;20.60;99.90
26599;DHT22;14240;51.064;16.612;2023-06-22T03:11:07;20.50;99.90
26599;DHT22;14240;51.064;16.612;2023-06-22T03:13:33;20.50;99.90
26599;DHT22;14240;51.064;16.612;2023-06-22T03:15:59;20.50;99.90
26599;DHT22;14240;51.064;16.612;2023-06-22T03:18:24;20.40;99.90
26599;DHT22;14240;51.064;16.612;2023-06-22T03:20:50;20.50;99.90
26599;DHT22;14240;51.064;16.612;2023-06-22T03:23:16;20.50;99.90
26599;DHT22;14240;51.064;16.612;2023-06-22T03:25:42;20.50;99.90
26599;DHT22;14240;51.064;16.612;2023-06-22T03:28:10;20.60;99.90
26599;DHT22;14240;51.064;16.612;2023-06-22T03:30:36;20.60;99.90
26599;DHT22;14240;51.064;16.612;2023-06-22T03:33:01;20.60;99.90
26599;DHT22;14240;51.064;16.612;2023-06-22T03:35:27;20.60;99.90
26599;DHT22;14240;51.064;16.612;2023-06-22T03:37:53;20.60;99.90
26599;DHT22;14240;51.064;16.612;2023-06-22T03:40:19;20.60;99.90
26599;DHT22;14240;51.064;16.612;2023-06-22T03:42:45;20.70;99.90
26599;DHT22;14240;51.064;16.612;2023-06-22T03:45:11;20.70;99.90
26599;DHT22;14240;51.064;16.612;2023-06-22T03:47:37;20.70;99.90
26599;DHT22;14240;51.064;16.612;2023-06-22T03:50:03;20.70;99.90
26599;DHT22;14240;51.064;16.612;2023-06-22T03:52:29;20.70;99.90
26599;DHT22;14240;51.064;16.612;2023-06-22T03:54:55;20.80;99.90
26599;DHT22;14240;51.064;16.612;2023-06-22T03:57:21;20.80;99.90
26599;DHT22;14240;51.064;16.612;2023-06-22T03:59:47;20.90;99.90
26599;DHT22;14240;51.064;16.612;2023-06-22T04:02:13;20.90;99.90
26599;DHT22;14240;51.064;16.612;2023-06-22T04:04:38;20.90;99.90
26599;DHT22;14240;51.064;16.612;2023-06-22T04:07:05;21.00;99.90
26599;DHT22;14240;51.064;16.612;2023-06-22T04:09:31;21.00;99.90
26599;DHT22;14240;51.064;16.612;2023-06-22T04:11:56;21.00;99.90
26599;DHT22;14240;51.064;16.612;2023-06-22T04:14:22;21.10;99.90
26599;DHT22;14240;51.064;16.612;2023-06-22T04:16:47;21.10;99.90
26599;DHT22;14240;51.064;16.612;2023-06-22T04:19:13;21.20;99.90
26599;DHT22;14240;51.064;16.612;2023-06-22T04:21:45;21.20;99.90
26599;DHT22;14240;51.064;16.612;2023-06-22T04:24:11;21.20;99.90
26599;DHT22;14240;51.064;16.612;2023-06-22T04:26:37;21.30;99.90
26599;DHT22;14240;51.064;16.612;2023-06-22T04:29:04;21.40;99.90
26599;DHT22;14240;51.064;16.612;2023-06-22T04:31:32;21.40;99.90
26599;DHT22;14240;51.064;16.612;2023-06-22T04:34:03;21.40;99.90
26599;DHT22;14240;51.064;16.612;2023-06-22T04:36:41;21.50;99.90
26599;DHT22;14240;51.064;16.612;2023-06-22T04:39:08;21.50;99.90
26599;DHT22;14240;51.064;16.612;2023-06-22T04:41:35;21.60;99.90
26599;DHT22;14240;51.064;16.612;2023-06-22T04:44:20;21.60;99.90
26599;DHT22;14240;51.064;16.612;2023-06-22T04:46:57;21.70;99.90
26599;DHT22;14240;51.064;16.612;2023-06-22T04:49:26;21.80;99.90
26599;DHT22;14240;51.064;16.612;2023-06-22T04:52:09;21.90;99.90
26599;DHT22;14240;51.064;16.612;2023-06-22T04:54:36;21.90;99.90
26599;DHT22;14240;51.064;16.612;2023-06-22T04:57:04;22.00;99.90
26599;DHT22;14240;51.064;16.612;2023-06-22T04:59:36;22.10;99.90
26599;DHT22;14240;51.064;16.612;2023-06-22T05:02:04;22.20;99.90
26599;DHT22;14240;51.064;16.612;2023-06-22T05:04:31;22.30;99.90
26599;DHT22;14240;51.064;16.612;2023-06-22T05:06:58;22.30;99.90
26599;DHT22;14240;51.064;16.612;2023-06-22T05:09:24;22.40;99.90
26599;DHT22;14240;51.064;16.612;2023-06-22T05:11:50;22.50;99.90
26599;DHT22;14240;51.064;16.612;2023-06-22T05:14:16;22.60;99.90
26599;DHT22;14240;51.064;16.612;2023-06-22T05:16:43;22.70;99.90
26599;DHT22;14240;51.064;16.612;2023-06-22T05:19:09;22.80;99.90
26599;DHT22;14240;51.064;16.612;2023-06-22T05:21:35;22.80;99.90
26599;DHT22;14240;51.064;16.612;2023-06-22T05:24:00;22.90;99.90
26599;DHT22;14240;51.064;16.612;2023-06-22T05:26:29;22.90;99.90
26599;DHT22;14240;51.064;16.612;2023-06-22T05:28:54;23.00;99.90
26599;DHT22;14240;51.064;16.612;2023-06-22T05:31:20;23.00;99.90
26599;DHT22;14240;51.064;16.612;2023-06-22T05:33:47;23.10;99.90
26599;DHT22;14240;51.064;16.612;2023-06-22T05:36:13;23.10;99.90
26599;DHT22;14240;51.064;16.612;2023-06-22T05:38:39;23.20;99.90
26599;DHT22;14240;51.064;16.612;2023-06-22T05:41:06;23.30;99.90
26599;DHT22;14240;51.064;16.612;2023-06-22T05:43:32;23.30;99.90
26599;DHT22;14240;51.064;16.612;2023-06-22T05:45:59;23.40;99.90
26599;DHT22;14240;51.064;16.612;2023-06-22T05:48:25;23.50;99.90
26599;DHT22;14240;51.064;16.612;2023-06-22T05:50:51;23.70;99.90
26599;DHT22;14240;51.064;16.612;2023-06-22T05:53:16;23.70;99.90
26599;DHT22;14240;51.064;16.612;2023-06-22T05:55:42;23.80;99.90
26599;DHT22;14240;51.064;16.612;2023-06-22T05:58:08;23.90;99.90
26599;DHT22;14240;51.064;16.612;2023-06-22T06:00:34;24.00;99.90
26599;DHT22;14240;51.064;16.612;2023-06-22T06:03:00;24.10;99.90
26599;DHT22;14240;51.064;16.612;2023-06-22T06:05:33;24.20;99.90
26599;DHT22;14240;51.064;16.612;2023-06-22T06:08:00;24.30;99.90
26599;DHT22;14240;51.064;16.612;2023-06-22T06:10:27;24.40;99.90
26599;DHT22;14240;51.064;16.612;2023-06-22T06:12:55;24.50;99.90
26599;DHT22;14240;51.064;16.612;2023-06-22T06:15:21;24.60;99.90
26599;DHT22;14240;51.064;16.612;2023-06-22T06:17:50;24.70;99.90
26599;DHT22;14240;51.064;16.612;2023-06-22T06:20:21;24.80;99.90
26599;DHT22;14240;51.064;16.612;2023-06-22T06:22:48;25.00;99.90
26599;DHT22;14240;51.064;16.612;2023-06-22T06:25:14;25.10;99.90
26599;DHT22;14240;51.064;16.612;2023-06-22T06:27:45;25.30;99.90
26599;DHT22;14240;51.064;16.612;2023-06-22T06:30:12;25.30;99.90
26599;DHT22;14240;51.064;16.612;2023-06-22T06:32:38;25.40;99.90
26599;DHT22;14240;51.064;16.612;2023-06-22T06:35:15;25.50;99.90
26599;DHT22;14240;51.064;16.612;2023-06-22T06:37:46;25.60;99.90
26599;DHT22;14240;51.064;16.612;2023-06-22T06:40:13;25.70;99.90
26599;DHT22;14240;51.064;16.612;2023-06-22T06:42:57;25.70;99.90
26599;DHT22;14240;51.064;16.612;2023-06-22T06:45:23;25.80;99.90
26599;DHT22;14240;51.064;16.612;2023-06-22T06:47:51;25.80;99.90
26599;DHT22;14240;51.064;16.612;2023-06-22T06:50:17;25.90;99.90
26599;DHT22;14240;51.064;16.612;2023-06-22T06:52:43;26.00;99.90
26599;DHT22;14240;51.064;16.612;2023-06-22T06:55:09;26.10;99.90
26599;DHT22;14240;51.064;16.612;2023-06-22T06:57:38;26.20;99.90
26599;DHT22;14240;51.064;16.612;2023-06-22T07:00:05;26.30;99.90
26599;DHT22;14240;51.064;16.612;2023-06-22T07:02:44;26.30;99.90
26599;DHT22;14240;51.064;16.612;2023-06-22T07:05:11;26.40;99.90
26599;DHT22;14240;51.064;16.612;2023-06-22T07:07:38;26.50;99.90
26599;DHT22;14240;51.064;16.612;2023-06-22T07:10:05;26.50;99.90
26599;DHT22;14240;51.064;16.612;2023-06-22T07:12:31;26.60;99.90
26599;DHT22;14240;51.064;16.612;2023-06-22T07:15:07;26.70;99.90
26599;DHT22;14240;51.064;16.612;2023-06-22T07:17:34;26.80;99.90
26599;DHT22;14240;51.064;16.612;2023-06-22T07:20:02;26.80;99.90
26599;DHT22;14240;51.064;16.612;2023-06-22T07:22:33;27.00;99.90
26599;DHT22;14240;51.064;16.612;2023-06-22T07:24:58;27.10;99.90
26599;DHT22;14240;51.064;16.612;2023-06-22T07:27:24;27.10;99.90
26599;DHT22;14240;51.064;16.612;2023-06-22T07:29:50;27.20;99.90
26599;DHT22;14240;51.064;16.612;2023-06-22T07:32:16;27.30;99.90
26599;DHT22;14240;51.064;16.612;2023-06-22T07:34:41;27.30;99.90
26599;DHT22;14240;51.064;16.612;2023-06-22T07:37:07;27.40;99.90
26599;DHT22;14240;51.064;16.612;2023-06-22T07:39:33;27.40;99.90
26599;DHT22;14240;51.064;16.612;2023-06-22T07:41:59;27.40;99.90
26599;DHT22;14240;51.064;16.612;2023-06-22T07:44:25;27.50;99.90
26599;DHT22;14240;51.064;16.612;2023-06-22T07:46:51;27.60;99.90
26599;DHT22;14240;51.064;16.612;2023-06-22T07:49:17;27.70;99.90
26599;DHT22;14240;51.064;16.612;2023-06-22T07:51:43;27.70;99.90
26599;DHT22;14240;51.064;16.612;2023-06-22T07:54:09;27.80;99.90
26599;DHT22;14240;51.064;16.612;2023-06-22T07:56:36;27.90;99.90
26599;DHT22;14240;51.064;16.612;2023-06-22T07:59:02;27.90;99.90
26599;DHT22;14240;51.064;16.612;2023-06-22T08:01:29;28.00;99.90
26599;DHT22;14240;51.064;16.612;2023-06-22T08:03:55;28.10;99.90
26599;DHT22;14240;51.064;16.612;2023-06-22T08:06:20;28.20;99.90
26599;DHT22;14240;51.064;16.612;2023-06-22T08:08:46;28.30;99.90
26599;DHT22;14240;51.064;16.612;2023-06-22T08:11:14;28.40;99.90
26599;DHT22;14240;51.064;16.612;2023-06-22T08:13:40;28.50;99.90
26599;DHT22;14240;51.064;16.612;2023-06-22T08:16:06;28.60;99.90
26599;DHT22;14240;51.064;16.612;2023-06-22T08:18:33;28.70;99.90
26599;DHT22;14240;51.064;16.612;2023-06-22T08:20:58;28.70;99.90
26599;DHT22;14240;51.064;16.612;2023-06-22T08:23:24;28.70;99.90
26599;DHT22;14240;51.064;16.612;2023-06-22T08:25:50;28.70;99.90
26599;DHT22;14240;51.064;16.612;2023-06-22T08:28:16;28.60;99.90
26599;DHT22;14240;51.064;16.612;2023-06-22T08:30:41;28.60;99.90
26599;DHT22;14240;51.064;16.612;2023-06-22T08:33:07;28.50;99.90
26599;DHT22;14240;51.064;16.612;2023-06-22T08:35:33;28.50;99.90
26599;DHT22;14240;51.064;16.612;2023-06-22T08:37:58;28.40;99.90
26599;DHT22;14240;51.064;16.612;2023-06-22T08:40:25;28.50;99.90
26599;DHT22;14240;51.064;16.612;2023-06-22T08:42:51;28.60;99.90
26599;DHT22;14240;51.064;16.612;2023-06-22T08:45:16;28.60;99.90
26599;DHT22;14240;51.064;16.612;2023-06-22T08:47:42;28.60;99.90
26599;DHT22;14240;51.064;16.612;2023-06-22T08:50:12;28.60;99.90
26599;DHT22;14240;51.064;16.612;2023-06-22T08:52:39;28.70;99.90
26599;DHT22;14240;51.064;16.612;2023-06-22T08:55:07;28.60;99.90
26599;DHT22;14240;51.064;16.612;2023-06-22T08:57:33;28.60;99.90
26599;DHT22;14240;51.064;16.612;2023-06-22T08:59:59;28.60;99.90
26599;DHT22;14240;51.064;16.612;2023-06-22T09:02:28;28.60;99.90
26599;DHT22;14240;51.064;16.612;2023-06-22T09:04:57;28.60;99.90
26599;DHT22;14240;51.064;16.612;2023-06-22T09:07:23;28.70;99.90
26599;DHT22;14240;51.064;16.612;2023-06-22T09:09:50;28.70;99.90
26599;DHT22;14240;51.064;16.612;2023-06-22T09:12:16;28.70;99.90
26599;DHT22;14240;51.064;16.612;2023-06-22T09:14:42;28.60;99.90
26599;DHT22;14240;51.064;16.612;2023-06-22T09:17:08;28.60;99.90
26599;DHT22;14240;51.064;16.612;2023-06-22T09:19:33;28.50;99.90
26599;DHT22;14240;51.064;16.612;2023-06-22T09:22:00;28.50;99.90
26599;DHT22;14240;51.064;16.612;2023-06-22T09:24:26;28.50;99.90
26599;DHT22;14240;51.064;16.612;2023-06-22T09:26:51;28.50;99.90
26599;DHT22;14240;51.064;16.612;2023-06-22T09:29:17;28.60;99.90
26599;DHT22;14240;51.064;16.612;2023-06-22T09:31:42;28.60;99.90
26599;DHT22;14240;51.064;16.612;2023-06-22T09:34:09;28.70;99.90
26599;DHT22;14240;51.064;16.612;2023-06-22T09:36:35;28.70;99.90
26599;DHT22;14240;51.064;16.612;2023-06-22T09:39:01;28.70;99.90
26599;DHT22;14240;51.064;16.612;2023-06-22T09:41:31;28.70;99.90
26599;DHT22;14240;51.064;16.612;2023-06-22T09:43:57;28.70;99.90
26599;DHT22;14240;51.064;16.612;2023-06-22T09:46:23;28.50;99.90
26599;DHT22;14240;51.064;16.612;2023-06-22T09:48:50;29.10;99.90
26599;DHT22;14240;51.064;16.612;2023-06-22T09:51:16;28.70;99.90
26599;DHT22;14240;51.064;16.612;2023-06-22T09:53:42;28.70;99.90
26599;DHT22;14240;51.064;16.612;2023-06-22T09:56:09;28.60;99.90
26599;DHT22;14240;51.064;16.612;2023-06-22T09:58:41;28.60;99.90
26599;DHT22;14240;51.064;16.612;2023-06-22T10:01:07;28.70;99.90
26599;DHT22;14240;51.064;16.612;2023-06-22T10:03:33;28.70;99.90
26599;DHT22;14240;51.064;16.612;2023-06-22T10:05:59;28.70;99.90
26599;DHT22;14240;51.064;16.612;2023-06-22T10:08:25;28.70;99.90
26599;DHT22;14240;51.064;16.612;2023-06-22T10:10:50;28.70;99.90
26599;DHT22;14240;51.064;16.612;2023-06-22T10:13:16;28.80;99.90
26599;DHT22;14240;51.064;16.612;2023-06-22T10:15:42;28.80;99.90
26599;DHT22;14240;51.064;16.612;2023-06-22T10:18:08;28.90;99.90
26599;DHT22;14240;51.064;16.612;2023-06-22T10:20:33;28.90;99.90
26599;DHT22;14240;51.064;16.612;2023-06-22T10:22:59;29.00;99.90
26599;DHT22;14240;51.064;16.612;2023-06-22T10:25:25;29.00;99.90
26599;DHT22;14240;51.064;16.612;2023-06-22T10:27:51;29.00;99.90
26599;DHT22;14240;51.064;16.612;2023-06-22T10:30:16;29.00;99.90
26599;DHT22;14240;51.064;16.612;2023-06-22T10:32:43;29.00;99.70
26599;DHT22;14240;51.064;16.612;2023-06-22T10:35:09;28.90;99.60
26599;DHT22;14240;51.064;16.612;2023-06-22T10:37:39;28.90;99.80
26599;DHT22;14240;51.064;16.612;2023-06-22T10:40:05;28.90;99.90
26599;DHT22;14240;51.064;16.612;2023-06-22T10:42:31;28.80;99.20
26599;DHT22;14240;51.064;16.612;2023-06-22T10:44:56;28.80;99.50
26599;DHT22;14240;51.064;16.612;2023-06-22T10:47:22;28.80;99.20
26599;DHT22;14240;51.064;16.612;2023-06-22T10:49:48;28.90;99.20
26599;DHT22;14240;51.064;16.612;2023-06-22T10:52:13;28.90;99.20
26599;DHT22;14240;51.064;16.612;2023-06-22T10:54:39;29.00;99.00
26599;DHT22;14240;51.064;16.612;2023-06-22T10:57:05;29.10;99.00
26599;DHT22;14240;51.064;16.612;2023-06-22T10:59:31;29.20;97.90
26599;DHT22;14240;51.064;16.612;2023-06-22T11:01:57;29.30;98.90
26599;DHT22;14240;51.064;16.612;2023-06-22T11:04:23;29.50;98.80
26599;DHT22;14240;51.064;16.612;2023-06-22T11:06:49;29.60;98.60
26599;DHT22;14240;51.064;16.612;2023-06-22T11:09:16;29.70;98.80
26599;DHT22;14240;51.064;16.612;2023-06-22T11:11:50;29.80;98.10
26599;DHT22;14240;51.064;16.612;2023-06-22T11:14:18;29.80;98.50
26599;DHT22;14240;51.064;16.612;2023-06-22T11:16:44;29.90;97.20
26599;DHT22;14240;51.064;16.612;2023-06-22T11:19:11;30.00;97.10
26599;DHT22;14240;51.064;16.612;2023-06-22T11:21:37;30.00;96.30
26599;DHT22;14240;51.064;16.612;2023-06-22T11:24:03;30.00;96.80
26599;DHT22;14240;51.064;16.612;2023-06-22T11:26:29;30.10;96.70
26599;DHT22;14240;51.064;16.612;2023-06-22T11:28:55;30.00;96.70
26599;DHT22;14240;51.064;16.612;2023-06-22T11:31:21;30.00;96.70
26599;DHT22;14240;51.064;16.612;2023-06-22T11:33:46;29.90;96.80
26599;DHT22;14240;51.064;16.612;2023-06-22T11:36:13;29.80;97.40
26599;DHT22;14240;51.064;16.612;2023-06-22T11:38:39;29.80;96.60
26599;DHT22;14240;51.064;16.612;2023-06-22T11:41:06;29.80;96.60
26599;DHT22;14240;51.064;16.612;2023-06-22T11:43:32;29.70;96.50
26599;DHT22;14240;51.064;16.612;2023-06-22T11:45:58;29.80;96.30
26599;DHT22;14240;51.064;16.612;2023-06-22T11:48:26;29.70;96.20
26599;DHT22;14240;51.064;16.612;2023-06-22T11:50:52;29.70;96.10
26599;DHT22;14240;51.064;16.612;2023-06-22T11:53:18;29.80;96.00
26599;DHT22;14240;51.064;16.612;2023-06-22T11:55:44;29.80;96.10
26599;DHT22;14240;51.064;16.612;2023-06-22T11:58:10;29.80;95.70
26599;DHT22;14240;51.064;16.612;2023-06-22T12:00:37;29.80;95.30
26599;DHT22;14240;51.064;16.612;2023-06-22T12:03:03;29.80;95.50
26599;DHT22;14240;51.064;16.612;2023-06-22T12:05:28;29.80;95.60
26599;DHT22;14240;51.064;16.612;2023-06-22T12:07:54;29.80;95.70
26599;DHT22;14240;51.064;16.612;2023-06-22T12:10:24;29.80;95.80
26599;DHT22;14240;51.064;16.612;2023-06-22T12:12:50;29.80;95.70
26599;DHT22;14240;51.064;16.612;2023-06-22T12:15:16;29.90;95.80
26599;DHT22;14240;51.064;16.612;2023-06-22T12:17:42;29.90;95.90
26599;DHT22;14240;51.064;16.612;2023-06-22T12:20:08;29.90;95.40
26599;DHT22;14240;51.064;16.612;2023-06-22T12:22:34;30.00;95.10
26599;DHT22;14240;51.064;16.612;2023-06-22T12:25:01;30.00;95.50
26599;DHT22;14240;51.064;16.612;2023-06-22T12:27:27;30.10;94.80
26599;DHT22;14240;51.064;16.612;2023-06-22T12:29:52;30.10;95.20
26599;DHT22;14240;51.064;16.612;2023-06-22T12:32:18;30.10;94.70
26599;DHT22;14240;51.064;16.612;2023-06-22T12:34:44;30.10;94.60
26599;DHT22;14240;51.064;16.612;2023-06-22T12:37:10;30.10;94.50
26599;DHT22;14240;51.064;16.612;2023-06-22T12:39:36;30.00;94.30
26599;DHT22;14240;51.064;16.612;2023-06-22T12:42:02;30.00;94.60
26599;DHT22;14240;51.064;16.612;2023-06-22T12:44:28;30.10;94.20
26599;DHT22;14240;51.064;16.612;2023-06-22T12:46:53;30.20;94.10
26599;DHT22;14240;51.064;16.612;2023-06-22T12:49:19;30.20;93.60
26599;DHT22;14240;51.064;16.612;2023-06-22T12:51:45;30.20;93.60
26599;DHT22;14240;51.064;16.612;2023-06-22T12:54:11;30.20;93.60
26599;DHT22;14240;51.064;16.612;2023-06-22T12:56:37;30.20;93.70
26599;DHT22;14240;51.064;16.612;2023-06-22T12:59:06;30.20;94.00
26599;DHT22;14240;51.064;16.612;2023-06-22T13:01:32;30.10;93.80
26599;DHT22;14240;51.064;16.612;2023-06-22T13:03:58;30.10;93.60
26599;DHT22;14240;51.064;16.612;2023-06-22T13:06:25;30.00;93.90
26599;DHT22;14240;51.064;16.612;2023-06-22T13:08:50;30.10;93.60
26599;DHT22;14240;51.064;16.612;2023-06-22T13:11:16;30.10;93.50
26599;DHT22;14240;51.064;16.612;2023-06-22T13:13:44;30.30;93.50
26599;DHT22;14240;51.064;16.612;2023-06-22T13:16:10;30.40;93.20
26599;DHT22;14240;51.064;16.612;2023-06-22T13:18:36;30.40;93.10
26599;DHT22;14240;51.064;16.612;2023-06-22T13:21:02;30.50;93.10
26599;DHT22;14240;51.064;16.612;2023-06-22T13:23:28;30.60;93.00
26599;DHT22;14240;51.064;16.612;2023-06-22T13:25:54;30.60;93.00
26599;DHT22;14240;51.064;16.612;2023-06-22T13:28:20;30.70;92.40
26599;DHT22;14240;51.064;16.612;2023-06-22T13:30:47;30.70;91.90
26599;DHT22;14240;51.064;16.612;2023-06-22T13:33:16;30.70;91.50
26599;DHT22;14240;51.064;16.612;2023-06-22T13:35:42;30.70;91.70
26599;DHT22;14240;51.064;16.612;2023-06-22T13:38:10;30.80;91.50
26599;DHT22;14240;51.064;16.612;2023-06-22T13:40:37;30.80;91.00
26599;DHT22;14240;51.064;16.612;2023-06-22T13:43:05;30.90;91.30
26599;DHT22;14240;51.064;16.612;2023-06-22T13:45:32;30.90;91.50
26599;DHT22;14240;51.064;16.612;2023-06-22T13:47:58;31.00;91.90
26599;DHT22;14240;51.064;16.612;2023-06-22T13:50:24;31.10;91.40
26599;DHT22;14240;51.064;16.612;2023-06-22T13:52:50;31.10;91.30
26599;DHT22;14240;51.064;16.612;2023-06-22T13:55:15;31.10;91.00
26599;DHT22;14240;51.064;16.612;2023-06-22T13:57:42;31.00;90.60
26599;DHT22;14240;51.064;16.612;2023-06-22T14:00:08;31.00;90.50
26599;DHT22;14240;51.064;16.612;2023-06-22T14:02:34;31.00;90.70
26599;DHT22;14240;51.064;16.612;2023-06-22T14:05:00;31.00;90.70
26599;DHT22;14240;51.064;16.612;2023-06-22T14:07:27;31.00;90.90
26599;DHT22;14240;51.064;16.612;2023-06-22T14:09:53;30.90;91.00
26599;DHT22;14240;51.064;16.612;2023-06-22T14:12:18;30.90;91.40
26599;DHT22;14240;51.064;16.612;2023-06-22T14:14:44;30.90;90.80
26599;DHT22;14240;51.064;16.612;2023-06-22T14:17:10;30.90;90.60
26599;DHT22;14240;51.064;16.612;2023-06-22T14:19:36;30.90;90.60
26599;DHT22;14240;51.064;16.612;2023-06-22T14:22:02;30.90;90.70
26599;DHT22;14240;51.064;16.612;2023-06-22T14:24:28;30.90;90.60
26599;DHT22;14240;51.064;16.612;2023-06-22T14:26:54;30.80;90.70
26599;DHT22;14240;51.064;16.612;2023-06-22T14:29:21;30.80;90.70
26599;DHT22;14240;51.064;16.612;2023-06-22T14:31:47;30.80;90.70
26599;DHT22;14240;51.064;16.612;2023-06-22T14:34:13;30.80;90.70
26599;DHT22;14240;51.064;16.612;2023-06-22T14:36:39;30.90;90.60
26599;DHT22;14240;51.064;16.612;2023-06-22T14:39:05;30.90;90.60
26599;DHT22;14240;51.064;16.612;2023-06-22T14:41:31;30.90;90.10
26599;DHT22;14240;51.064;16.612;2023-06-22T14:43:57;30.90;90.30
26599;DHT22;14240;51.064;16.612;2023-06-22T14:46:22;30.80;90.60
26599;DHT22;14240;51.064;16.612;2023-06-22T14:48:48;30.70;90.10
26599;DHT22;14240;51.064;16.612;2023-06-22T14:51:14;30.70;90.20
26599;DHT22;14240;51.064;16.612;2023-06-22T14:53:39;30.70;90.30
26599;DHT22;14240;51.064;16.612;2023-06-22T14:56:06;30.60;90.40
26599;DHT22;14240;51.064;16.612;2023-06-22T14:58:33;30.60;90.20
26599;DHT22;14240;51.064;16.612;2023-06-22T15:01:02;30.60;90.40
26599;DHT22;14240;51.064;16.612;2023-06-22T15:03:29;30.60;90.20
26599;DHT22;14240;51.064;16.612;2023-06-22T15:05:58;30.60;90.40
26599;DHT22;14240;51.064;16.612;2023-06-22T15:08:24;30.60;90.30
26599;DHT22;14240;51.064;16.612;2023-06-22T15:10:51;30.50;90.30
26599;DHT22;14240;51.064;16.612;2023-06-22T15:13:17;30.50;90.40
26599;DHT22;14240;51.064;16.612;2023-06-22T15:15:45;30.50;90.10
26599;DHT22;14240;51.064;16.612;2023-06-22T15:18:11;30.50;90.30
26599;DHT22;14240;51.064;16.612;2023-06-22T15:20:37;30.50;90.60